sensor_id;sensor_type;location;lat;lon;timestamp;P1;P2;P0
68341;PMS7003;55668;52.310;21.066;2023-08-06T00:18:20;17;17;
68341;PMS7003;55668;52.310;21.066;2023-08-06T00:50:35;14;14;
68341;PMS7003;55668;52.310;21.066;2023-08-06T01:36:42;13;13;
68341;PMS7003;55668;52.310;21.066;2023-08-06T01:52:10;15;13;
68341;PMS7003;55668;52.310;21.066;2023-08-06T02:37:02;12;12;
68341;PMS7003;55668;52.310;21.066;2023-08-06T03:07:25;10;10;
68341;PMS7003;55668;52.310;21.066;2023-08-06T03:38:26;10;10;
68341;PMS7003;55668;52.310;21.066;2023-08-06T03:53:47;12;12;
68341;PMS7003;55668;52.310;21.066;2023-08-06T04:09:34;14;14;
68341;PMS7003;55668;52.310;21.066;2023-08-06T04:23:32;15;15;
68341;PMS7003;55668;52.310;21.066;2023-08-06T04:39:57;19;19;
68341;PMS7003;55668;52.310;21.066;2023-08-06T04:55:06;19;19;
68341;PMS7003;55668;52.310;21.066;2023-08-06T05:10:46;21;21;
68341;PMS7003;55668;52.310;21.066;2023-08-06T05:26:53;21;21;
68341;PMS7003;55668;52.310;21.066;2023-08-06T05:43:31;20;20;
68341;PMS7003;55668;52.310;21.066;2023-08-06T05:56:35;26;25;
68341;PMS7003;55668;52.310;21.066;2023-08-06T06:13:26;26;26;
68341;PMS7003;55668;52.310;21.066;2023-08-06T06:41:59;23;22;
68341;PMS7003;55668;52.310;21.066;2023-08-06T06:58:43;26;25;
68341;PMS7003;55668;52.310;21.066;2023-08-06T07:12:20;32;30;
68341;PMS7003;55668;52.310;21.066;2023-08-06T07:23:39;60;50;
68341;PMS7003;55668;52.310;21.066;2023-08-06T07:26:17;60;50;
68341;PMS7003;55668;52.310;21.066;2023-08-06T07:30:38;42;37;
68341;PMS7003;55668;52.310;21.066;2023-08-06T07:35:20;42;37;
68341;PMS7003;55668;52.310;21.066;2023-08-06T07:44:42;38;33;
68341;PMS7003;55668;52.310;21.066;2023-08-06T07:50:32;25;23;
68341;PMS7003;55668;52.310;21.066;2023-08-06T07:58:20;23;23;
68341;PMS7003;55668;52.310;21.066;2023-08-06T08:13:46;24;24;
68341;PMS7003;55668;52.310;21.066;2023-08-06T08:29:14;24;24;
68341;PMS7003;55668;52.310;21.066;2023-08-06T09:03:24;23;23;
68341;PMS7003;55668;52.310;21.066;2023-08-06T09:32:45;21;21;
68341;PMS7003;55668;52.310;21.066;2023-08-06T09:49:41;21;21;
68341;PMS7003;55668;52.310;21.066;2023-08-06T10:02:59;23;22;
68341;PMS7003;55668;52.310;21.066;2023-08-06T10:34:21;21;21;
68341;PMS7003;55668;52.310;21.066;2023-08-06T10:49:17;21;21;
68341;PMS7003;55668;52.310;21.066;2023-08-06T11:04:30;19;19;
68341;PMS7003;55668;52.310;21.066;2023-08-06T11:18:03;22;22;
68341;PMS7003;55668;52.310;21.066;2023-08-06T12:19:17;18;18;
68341;PMS7003;55668;52.310;21.066;2023-08-06T12:35:08;21;21;
68341;PMS7003;55668;52.310;21.066;2023-08-06T12:49:59;22;22;
68341;PMS7003;55668;52.310;21.066;2023-08-06T13:05:47;22;22;
68341;PMS7003;55668;52.310;21.066;2023-08-06T13:21:04;31;29;
68341;PMS7003;55668;52.310;21.066;2023-08-06T13:36:13;24;24;
68341;PMS7003;55668;52.310;21.066;2023-08-06T14:06:45;23;23;
68341;PMS7003;55668;52.310;21.066;2023-08-06T14:21:56;24;23;
68341;PMS7003;55668;52.310;21.066;2023-08-06T14:37:12;22;20;
68341;PMS7003;55668;52.310;21.066;2023-08-06T14:53:46;18;18;
68341;PMS7003;55668;52.310;21.066;2023-08-06T15:09:49;15;15;
68341;PMS7003;55668;52.310;21.066;2023-08-06T15:39:31;13;13;
68341;PMS7003;55668;52.310;21.066;2023-08-06T15:54:55;11;11;
68341;PMS7003;55668;52.310;21.066;2023-08-06T16:09:53;9;9;
68341;PMS7003;55668;52.310;21.066;2023-08-06T16:24:42;7;7;
68341;PMS7003;55668;52.310;21.066;2023-08-06T16:41:38;2;2;
68341;PMS7003;55668;52.310;21.066;2023-08-06T16:57:53;1;1;
68341;PMS7003;55668;52.310;21.066;2023-08-06T17:12:04;2;2;
68341;PMS7003;55668;52.310;21.066;2023-08-06T17:27:55;3;3;
68341;PMS7003;55668;52.310;21.066;2023-08-06T17:43:49;3;3;
68341;PMS7003;55668;52.310;21.066;2023-08-06T18:01:49;4;4;
68341;PMS7003;55668;52.310;21.066;2023-08-06T18:12:55;5;5;
68341;PMS7003;55668;52.310;21.066;2023-08-06T19:00:22;4;4;
68341;PMS7003;55668;52.310;21.066;2023-08-06T19:15:51;4;4;
68341;PMS7003;55668;52.310;21.066;2023-08-06T19:44:14;4;4;
68341;PMS7003;55668;52.310;21.066;2023-08-06T20:20:30;1;1;
68341;PMS7003;55668;52.310;21.066;2023-08-06T20:31:43;0;0;
68341;PMS7003;55668;52.310;21.066;2023-08-06T20:48:56;0;0;
68341;PMS7003;55668;52.310;21.066;2023-08-06T21:01:47;0;0;
68341;PMS7003;55668;52.310;21.066;2023-08-06T21:16:05;0;0;
68341;PMS7003;55668;52.310;21.066;2023-08-06T21:32:37;0;0;
68341;PMS7003;55668;52.310;21.066;2023-08-06T21:49:39;0;0;
68341;PMS7003;55668;52.310;21.066;2023-08-06T22:07:05;0;0;
68341;PMS7003;55668;52.310;21.066;2023-08-06T22:17:55;1;1;
68341;PMS7003;55668;52.310;21.066;2023-08-06T22:35:48;0;0;
68341;PMS7003;55668;52.310;21.066;2023-08-06T22:48:48;0;0;
68341;PMS7003;55668;52.310;21.066;2023-08-06T23:03:31;0;0;
68341;PMS7003;55668;52.310;21.066;2023-08-06T23:38:44;0;0;
